Terminal Aerodrome Forecast
Issued by NWS

Home | Current Version | Previous Version | Text Only | Print | Product List | Glossary On
Versions: 1 2 3 4 5 6 7 8 9 10 11 12 13 14 15 16 17 18 19
305
FTUS42 KMLB 240535
TAFSFB
TAF
KSFB 240535Z 2406/2506 35008KT P6SM BKN008
     FM240900 34007KT P6SM SCT005 BKN008
      TEMPO 2409/2413 6SM BR BKN005
     FM241300 01008KT P6SM SCT005 SCT025
     FM241500 04010KT P6SM SCT035=

USA.gov is the U.S. government's official web portal to all federal, state and local government web resources and services.